Time;durP1;ratioP1;P1;durP2;ratioP2;P2;SDS_P1;SDS_P2;PMS_P1;PMS_P2;Temp;Humidity;BMP_temperature;BMP_pressure;BME280_temperature;BME280_humidity;BME280_pressure;Samples;Min_cycle;Max_cycle;Signal;HPM_P1;HPM_P2
2023/03/30 00:01:10;;;;;;;39.63;18.17;;;;;;;2.85;46.21;100268.40;1829888;77;25177;-59
2023/03/30 00:03:38;;;;;;;40.17;18.10;;;;;;;2.86;46.32;100263.31;1814203;78;27544;-58
2023/03/30 00:06:06;;;;;;;38.38;17.77;;;;;;;2.85;46.37;100267.06;1829738;78;25795;-59
2023/03/30 00:08:32;;;;;;;35.28;18.05;;;;;;;2.83;46.45;100263.82;1829821;77;25547;-58
2023/03/30 00:11:10;;;;;;;36.38;16.87;;;;;;;2.82;46.84;100258.22;1829775;77;25946;-59
2023/03/30 00:13:38;;;;;;;35.98;17.52;;;;;;;2.80;46.84;100250.47;1829860;77;25612;-57
2023/03/30 00:16:09;;;;;;;35.10;17.27;;;;;;;2.80;47.08;100244.58;1828043;77;28221;-59
2023/03/30 00:18:38;;;;;;;36.08;18.12;;;;;;;2.80;47.03;100244.58;1823632;78;25585;-58
2023/03/30 00:21:08;;;;;;;36.77;17.23;;;;;;;2.82;47.22;100259.56;1823864;78;25400;-55
2023/03/30 00:23:34;;;;;;;35.30;14.93;;;;;;;2.80;47.40;100243.78;1823661;78;25636;-58
2023/03/30 00:26:00;;;;;;;32.00;13.95;;;;;;;2.83;47.25;100253.14;1823699;78;25456;-59
2023/03/30 00:28:29;;;;;;;38.10;15.40;;;;;;;2.80;47.50;100245.13;1823692;78;27517;-55
2023/03/30 00:30:55;;;;;;;35.38;16.60;;;;;;;2.80;47.78;100245.13;1823480;78;25364;-56
2023/03/30 00:33:21;;;;;;;35.63;15.80;;;;;;;2.79;47.93;100245.66;1823690;78;25443;-57
2023/03/30 00:35:53;;;;;;;33.18;15.08;;;;;;;2.79;47.86;100242.16;1823585;78;25577;-58
2023/03/30 00:38:22;;;;;;;35.88;15.80;;;;;;;2.79;47.93;100235.48;1823704;78;25610;-56
2023/03/30 00:40:57;;;;;;;34.55;16.77;;;;;;;2.77;47.97;100235.73;1823753;78;27558;-58
2023/03/30 00:43:26;;;;;;;35.10;16.48;;;;;;;2.79;48.26;100238.98;1823607;78;25537;-57
2023/03/30 00:45:55;;;;;;;32.60;15.60;;;;;;;2.78;48.19;100233.35;1823916;78;25432;-59
2023/03/30 00:48:29;;;;;;;35.43;16.27;;;;;;;2.78;48.29;100224.55;1823711;78;25589;-58
2023/03/30 00:51:04;;;;;;;32.83;14.00;;;;;;;2.78;48.62;100220.54;1823664;78;25521;-57
2023/03/30 00:53:43;;;;;;;35.15;16.67;;;;;;;2.76;48.53;100220.80;1823681;78;27476;-59
2023/03/30 00:56:12;;;;;;;33.13;14.13;;;;;;;2.78;48.73;100219.20;1823718;78;25381;-58
2023/03/30 00:58:42;;;;;;;27.25;13.55;;;;;;;2.76;48.86;100218.66;1823801;78;25367;-58
2023/03/30 01:01:13;;;;;;;31.97;14.43;;;;;;;2.75;49.21;100223.18;1823736;78;25603;-59
2023/03/30 01:03:45;;;;;;;32.70;13.80;;;;;;;2.75;49.36;100213.83;1823853;78;25613;-57
2023/03/30 01:06:13;;;;;;;35.38;15.85;;;;;;;2.77;49.52;100208.23;1803396;78;27547;-58
2023/03/30 01:08:42;;;;;;;33.35;16.17;;;;;;;2.76;49.45;100202.09;1823730;78;25612;-58
2023/03/30 01:11:09;;;;;;;38.17;17.07;;;;;;;2.77;49.49;100204.23;1823967;78;30077;-59
2023/03/30 01:13:41;;;;;;;32.28;15.80;;;;;;;2.77;49.60;100202.35;1823771;78;25485;-59
2023/03/30 01:16:37;;;;;;;32.83;16.35;;;;;;;2.79;49.73;100196.75;1824654;78;25483;-58
2023/03/30 01:19:44;;;;;;;34.25;14.50;;;;;;;2.82;49.96;100198.12;1829923;78;25917;-59
2023/03/30 01:22:37;;;;;;;31.42;15.15;;;;;;;2.83;50.00;100198.38;1828920;77;25596;-58
2023/03/30 01:25:26;;;;;;;33.08;15.88;;;;;;;2.84;49.97;100198.66;1829797;77;25524;-57
2023/03/30 01:28:36;;;;;;;30.43;13.95;;;;;;;2.85;50.15;100186.92;1830020;77;25611;-58
2023/03/30 01:31:26;;;;;;;29.85;14.98;;;;;;;2.86;50.20;100191.18;1830002;78;25535;-59
2023/03/30 01:34:26;;;;;;;28.75;14.90;;;;;;;2.85;50.43;100189.59;1783650;80;28098;-59
2023/03/30 01:37:47;;;;;;;29.25;14.98;;;;;;;2.86;50.47;100188.00;1781927;80;27471;-58
2023/03/30 01:40:43;;;;;;;32.63;15.08;;;;;;;2.86;50.69;100191.18;1783927;80;25456;-60
2023/03/30 01:43:20;;;;;;;27.90;14.73;;;;;;;2.87;51.04;100196.27;1783928;80;25448;-59
2023/03/30 01:45:58;;;;;;;36.45;14.98;;;;;;;2.87;50.95;100195.47;1783184;80;25660;-58
2023/03/30 01:48:49;;;;;;;31.50;14.78;;;;;;;2.89;51.17;100203.48;1784002;80;27493;-59
2023/03/30 01:51:33;;;;;;;29.77;14.93;;;;;;;2.89;51.24;100203.48;1783830;79;25609;-59
2023/03/30 01:54:13;;;;;;;30.23;14.90;;;;;;;2.90;51.32;100194.41;1782715;80;25734;-59
2023/03/30 01:56:59;;;;;;;30.17;15.40;;;;;;;2.90;51.84;100187.73;1772572;80;25536;-59
2023/03/30 01:59:33;;;;;;;30.23;14.45;;;;;;;2.93;51.97;100190.44;1784009;80;25650;-59
2023/03/30 02:02:02;;;;;;;32.90;14.53;;;;;;;2.93;51.97;100177.08;1783819;80;27696;-57
2023/03/30 02:04:35;;;;;;;32.25;15.00;;;;;;;2.94;51.99;100180.80;1783977;80;25631;-54
2023/03/30 02:07:15;;;;;;;29.90;14.25;;;;;;;2.95;52.19;100175.73;1785144;78;25503;-57
2023/03/30 02:09:45;;;;;;;28.62;14.70;;;;;;;2.97;52.07;100169.59;1829878;78;25562;-58
2023/03/30 02:12:13;;;;;;;27.85;13.55;;;;;;;2.98;52.22;100178.43;1829900;77;25584;-58
2023/03/30 02:14:41;;;;;;;32.30;15.08;;;;;;;2.99;52.20;100170.13;1829851;78;27539;-58
2023/03/30 02:17:18;;;;;;;28.98;13.45;;;;;;;3.01;52.69;100166.41;1829613;78;25593;-54
2023/03/30 02:19:46;;;;;;;35.33;15.20;;;;;;;3.03;52.53;100169.61;1824820;78;25525;-55
2023/03/30 02:22:15;;;;;;;29.90;14.23;;;;;;;3.05;52.59;100170.15;1829817;78;25605;-58
2023/03/30 02:24:44;;;;;;;32.93;15.35;;;;;;;3.05;53.38;100164.29;1830046;77;25600;-58
2023/03/30 02:27:11;;;;;;;28.90;15.60;;;;;;;3.05;53.31;100165.63;1829983;78;27442;-58
2023/03/30 02:29:43;;;;;;;38.90;16.12;;;;;;;3.03;53.06;100164.27;1829783;78;25669;-58
2023/03/30 02:32:19;;;;;;;30.25;14.83;;;;;;;3.04;53.06;100161.88;1829847;78;25491;-57
2023/03/30 02:35:14;;;;;;;35.50;15.08;;;;;;;3.03;53.32;100158.92;1829847;77;25535;-57
2023/03/30 02:38:21;;;;;;;32.98;14.65;;;;;;;3.03;53.10;100162.93;1813671;78;25400;-58
2023/03/30 02:41:00;;;;;;;32.42;15.25;;;;;;;3.04;53.38;100160.54;1753038;81;27477;-58
2023/03/30 02:43:53;;;;;;;37.93;15.88;;;;;;;3.02;53.27;100153.33;1752901;81;25544;-58
2023/03/30 02:46:59;;;;;;;28.38;14.98;;;;;;;3.03;53.47;100160.26;1750874;81;25303;-58
2023/03/30 02:49:46;;;;;;;28.95;15.30;;;;;;;3.01;53.66;100149.83;1752803;81;25696;-58
2023/03/30 02:52:32;;;;;;;30.45;15.03;;;;;;;2.99;53.90;100146.62;1752846;81;25651;-58
2023/03/30 02:55:29;;;;;;;34.00;14.75;;;;;;;3.00;54.10;100152.25;1729564;82;27510;-58
2023/03/30 02:58:23;;;;;;;32.40;14.95;;;;;;;3.01;53.98;100145.03;1730201;82;25643;-58
2023/03/30 03:00:55;;;;;;;28.35;13.93;;;;;;;3.01;54.13;100146.36;1729339;80;25564;-58
2023/03/30 03:03:32;;;;;;;34.13;13.95;;;;;;;2.99;54.11;100149.30;1730338;82;25578;-57
2023/03/30 03:06:03;;;;;;;32.35;15.15;;;;;;;2.97;54.22;100148.22;1730429;82;25682;-57
2023/03/30 03:08:34;;;;;;;30.80;12.95;;;;;;;2.97;54.20;100139.41;1730340;82;27545;-58
2023/03/30 03:11:00;;;;;;;34.90;14.03;;;;;;;2.97;54.28;100136.19;1730288;82;25633;-59
2023/03/30 03:13:27;;;;;;;35.15;14.63;;;;;;;2.97;54.41;100131.39;1730412;82;25464;-54
2023/03/30 03:15:56;;;;;;;26.10;12.47;;;;;;;2.97;54.37;100134.06;1730291;82;25565;-54
2023/03/30 03:18:23;;;;;;;;;;;;;;;2.97;54.64;100130.05;1780905;80;25502;-56
2023/03/30 03:20:50;;;;;;;27.73;13.40;;;;;;;2.95;55.14;100124.97;1783297;80;27604;-54
2023/03/30 03:23:17;;;;;;;28.02;12.53;;;;;;;2.93;54.71;100127.64;1783220;80;25824;-55
2023/03/30 03:25:43;;;;;;;35.00;13.00;;;;;;;2.93;55.06;100124.44;1783235;80;25761;-57
2023/03/30 03:28:09;;;;;;;32.85;13.13;;;;;;;2.92;55.30;100121.48;1783286;80;25619;-58
2023/03/30 03:30:36;;;;;;;33.42;14.33;;;;;;;2.89;55.41;100111.30;1783302;80;25478;-58
2023/03/30 03:33:03;;;;;;;28.05;11.97;;;;;;;2.89;55.62;100117.19;1821344;78;27654;-55
2023/03/30 03:35:29;;;;;;;29.75;12.55;;;;;;;2.88;55.48;100107.56;1823666;78;25597;-57
2023/03/30 03:37:56;;;;;;;29.80;13.90;;;;;;;2.88;55.71;100109.72;1823763;78;25585;-57
2023/03/30 03:40:23;;;;;;;29.37;13.03;;;;;;;2.86;55.82;100111.03;1823684;77;25682;-57
2023/03/30 03:42:49;;;;;;;31.45;12.75;;;;;;;2.84;56.05;100103.27;1823729;78;25625;-57
2023/03/30 03:45:16;;;;;;;30.25;12.37;;;;;;;2.82;56.20;100098.73;1823705;78;27369;-57
2023/03/30 03:47:42;;;;;;;28.60;14.15;;;;;;;2.83;56.32;100103.53;1823550;78;25416;-57
2023/03/30 03:50:11;;;;;;;30.10;13.20;;;;;;;2.82;56.28;100097.40;1823690;78;25617;-59
2023/03/30 03:52:37;;;;;;;25.40;12.97;;;;;;;2.82;56.51;100099.28;1823898;78;25555;-59
2023/03/30 03:55:06;;;;;;;23.80;11.03;;;;;;;2.80;56.88;100090.19;1823651;78;25597;-59
2023/03/30 03:57:32;;;;;;;;;;;;;;;2.80;56.53;100090.98;1826364;78;27456;-58
2023/03/30 04:00:04;;;;;;;27.73;11.93;;;;;;;2.82;56.91;100084.58;1823667;78;25479;-58
2023/03/30 04:02:31;;;;;;;28.55;12.58;;;;;;;2.80;57.12;100084.84;1823848;78;25428;-58
2023/03/30 04:04:57;;;;;;;33.63;12.47;;;;;;;2.84;56.89;100090.46;1823693;78;25392;-57
2023/03/30 04:07:26;;;;;;;24.00;10.78;;;;;;;2.84;57.18;100088.58;1823757;78;25398;-57
2023/03/30 04:09:52;;;;;;;22.60;9.83;;;;;;;2.84;57.12;100081.11;1823799;78;27481;-58
2023/03/30 04:12:19;;;;;;;90.90;83.00;;;;;;;2.85;57.25;100087.53;1823607;78;32772;-58
2023/03/30 04:14:45;;;;;;;91.45;83.90;;;;;;;2.87;57.25;100080.59;1823714;78;25608;-58
2023/03/30 04:17:11;;;;;;;27.90;13.00;;;;;;;2.87;57.42;100074.70;1824885;78;34715;-59
2023/03/30 04:19:38;;;;;;;27.82;12.18;;;;;;;2.88;57.46;100077.66;1829791;78;25439;-56
2023/03/30 04:22:05;;;;;;;22.98;11.75;;;;;;;2.91;57.67;100073.13;1829799;77;27463;-54
2023/03/30 04:24:34;;;;;;;24.75;12.33;;;;;;;2.91;57.68;100062.45;1829674;78;25536;-59
2023/03/30 04:26:59;;;;;;;29.23;13.00;;;;;;;2.92;57.60;100074.72;1829648;77;25531;-59
2023/03/30 04:29:25;;;;;;;29.35;12.88;;;;;;;2.94;57.84;100073.12;1829704;78;25507;-59
2023/03/30 04:31:52;;;;;;;28.65;12.35;;;;;;;2.97;57.71;100072.60;1829748;78;25416;-58
2023/03/30 04:34:20;;;;;;;25.70;12.70;;;;;;;2.97;57.72;100065.38;1829781;78;27343;-59
2023/03/30 04:36:49;;;;;;;28.65;12.13;;;;;;;3.01;57.61;100064.32;1829807;78;25523;-55
2023/03/30 04:39:17;;;;;;;23.47;11.97;;;;;;;3.02;57.87;100061.93;1830072;78;35147;-57
2023/03/30 04:41:44;;;;;;;28.17;13.00;;;;;;;3.04;58.02;100065.67;1829940;77;25547;-55
2023/03/30 04:44:11;;;;;;;26.12;11.45;;;;;;;3.05;58.18;100069.42;1829953;78;25551;-58
2023/03/30 04:46:38;;;;;;;23.05;12.93;;;;;;;3.08;58.13;100065.41;1829977;77;27359;-57
2023/03/30 04:49:04;;;;;;;26.82;11.08;;;;;;;3.09;58.16;100068.36;1829866;77;25515;-54
2023/03/30 04:51:31;;;;;;;42.65;38.08;;;;;;;3.12;58.34;100065.16;1829951;77;25368;-56
2023/03/30 04:53:57;;;;;;;26.15;12.53;;;;;;;3.14;58.18;100063.81;1829912;77;25516;-57
2023/03/30 04:56:25;;;;;;;22.00;11.33;;;;;;;3.18;58.45;100057.41;1829935;77;25446;-57
2023/03/30 04:58:51;;;;;;;28.12;11.83;;;;;;;3.21;58.32;100061.43;1829927;78;27513;-56
2023/03/30 05:01:17;;;;;;;93.72;85.70;;;;;;;3.23;58.29;100055.28;1829812;77;25405;-57
2023/03/30 05:03:44;;;;;;;32.13;15.60;;;;;;;3.29;58.25;100064.37;1829897;77;25429;-57
2023/03/30 05:06:11;;;;;;;29.85;13.55;;;;;;;3.33;58.27;100057.96;1829988;77;25685;-60
2023/03/30 05:08:38;;;;;;;29.37;15.00;;;;;;;3.38;58.38;100059.30;1829952;78;25648;-58
2023/03/30 05:11:05;;;;;;;29.25;14.40;;;;;;;3.42;58.41;100059.57;1829941;77;27496;-57
2023/03/30 05:13:32;;;;;;;26.70;14.68;;;;;;;3.44;58.60;100051.56;1829838;77;25753;-54
2023/03/30 05:15:59;;;;;;;40.30;15.85;;;;;;;3.51;58.51;100060.66;1829868;77;25687;-57
2023/03/30 05:18:25;;;;;;;36.08;15.60;;;;;;;3.55;58.48;100051.81;1829736;77;25545;-57
2023/03/30 05:20:57;;;;;;;27.60;15.20;;;;;;;3.62;58.36;100064.13;1829939;78;25540;-58
2023/03/30 05:23:25;;;;;;;31.12;14.90;;;;;;;3.67;58.36;100062.24;1829970;78;28041;-59
2023/03/30 05:25:53;;;;;;;33.42;14.78;;;;;;;3.74;58.30;100054.73;1829826;78;25525;-58
2023/03/30 05:28:21;;;;;;;35.67;15.27;;;;;;;3.80;58.23;100059.57;1830119;78;25583;-56
2023/03/30 05:30:53;;;;;;;29.42;15.25;;;;;;;3.86;58.28;100051.78;1829846;77;25602;-58
2023/03/30 05:33:21;;;;;;;33.50;15.40;;;;;;;3.91;58.23;100046.97;1829961;77;25512;-54
2023/03/30 05:35:47;;;;;;;33.28;15.98;;;;;;;3.96;58.14;100044.83;1829588;78;27555;-57
2023/03/30 05:38:13;;;;;;;32.85;16.00;;;;;;;4.02;58.84;100039.72;1828622;78;27288;-55
2023/03/30 05:40:39;;;;;;;29.12;15.50;;;;;;;4.06;58.21;100044.27;1828810;78;25680;-56
2023/03/30 05:43:06;;;;;;;32.17;15.35;;;;;;;4.11;58.03;100032.75;1828774;77;25766;-58
2023/03/30 05:45:32;;;;;;;27.20;14.38;;;;;;;4.18;58.02;100035.14;1828772;77;25675;-57
2023/03/30 05:47:58;;;;;;;34.92;15.18;;;;;;;4.23;57.96;100039.14;1828701;77;27529;-59
2023/03/30 05:50:25;;;;;;;32.17;14.20;;;;;;;4.28;57.94;100032.44;1828734;78;27427;-55
2023/03/30 05:52:51;;;;;;;28.90;14.25;;;;;;;4.34;57.83;100035.34;1829843;78;25437;-56
2023/03/30 05:55:17;;;;;;;33.50;15.88;;;;;;;4.39;57.91;100040.70;1829865;77;25547;-56
2023/03/30 05:57:44;;;;;;;36.28;15.45;;;;;;;4.41;57.78;100039.89;1829858;78;25399;-57
2023/03/30 06:00:14;;;;;;;28.27;14.68;;;;;;;4.44;57.74;100032.66;1829881;77;27493;-56
2023/03/30 06:02:41;;;;;;;31.07;15.15;;;;;;;4.46;57.70;100042.55;1829805;77;25552;-58
2023/03/30 06:05:09;;;;;;;29.60;14.28;;;;;;;4.48;57.71;100039.59;1829895;78;25553;-58
2023/03/30 06:07:36;;;;;;;29.02;15.50;;;;;;;4.51;57.81;100036.34;1829875;77;25706;-57
2023/03/30 06:10:05;;;;;;;28.32;14.93;;;;;;;4.57;57.73;100034.47;1829885;77;25549;-57
2023/03/30 06:12:33;;;;;;;28.02;15.23;;;;;;;4.61;57.78;100034.17;1813875;78;27474;-56
2023/03/30 06:15:01;;;;;;;29.45;14.83;;;;;;;4.65;57.80;100040.05;1829797;77;25545;-55
2023/03/30 06:17:29;;;;;;;29.55;14.85;;;;;;;4.74;57.52;100028.76;1829746;77;25396;-57
2023/03/30 06:19:55;;;;;;;35.95;15.75;;;;;;;4.82;57.59;100032.20;1829810;78;25577;-57
2023/03/30 06:22:22;;;;;;;35.13;15.55;;;;;;;4.91;57.56;100030.53;1829951;77;25478;-57
2023/03/30 06:24:48;;;;;;;25.90;14.98;;;;;;;4.95;57.51;100028.89;1829858;77;27473;-57
2023/03/30 06:27:15;;;;;;;32.98;14.55;;;;;;;5.01;57.39;100034.48;1829804;77;25904;-57
2023/03/30 06:29:42;;;;;;;33.35;15.20;;;;;;;5.07;57.49;100031.77;1829804;78;25583;-57
2023/03/30 06:32:08;;;;;;;30.97;15.72;;;;;;;5.11;57.44;100036.31;1829779;78;25490;-57
2023/03/30 06:34:34;;;;;;;24.67;14.47;;;;;;;5.13;57.29;100028.78;1829887;78;25447;-58
2023/03/30 06:37:02;;;;;;;26.20;14.68;;;;;;;5.16;57.19;100026.89;1829790;77;27535;-58
2023/03/30 06:39:28;;;;;;;30.82;15.40;;;;;;;5.19;57.37;100029.02;1829781;77;25868;-57
2023/03/30 06:41:54;;;;;;;30.23;15.13;;;;;;;5.21;57.24;100026.03;1829825;77;25537;-57
2023/03/30 06:44:21;;;;;;;28.77;15.43;;;;;;;5.27;57.27;100028.95;1829810;78;26142;-58
2023/03/30 06:46:48;;;;;;;30.45;14.98;;;;;;;5.30;57.19;100031.62;1829826;78;25567;-56
2023/03/30 06:49:15;;;;;;;31.65;15.40;;;;;;;5.32;57.19;100019.52;1829860;77;26248;-57
2023/03/30 06:51:42;;;;;;;23.05;13.68;;;;;;;5.38;57.23;100029.14;1829698;78;25911;-58
2023/03/30 06:54:08;;;;;;;27.20;14.28;;;;;;;5.44;57.04;100029.89;1829887;78;25430;-57
2023/03/30 06:56:34;;;;;;;27.65;14.90;;;;;;;5.51;57.19;100027.67;1828493;77;25740;-56
2023/03/30 06:59:01;;;;;;;29.25;14.80;;;;;;;5.63;57.09;100033.23;1829637;77;25550;-57
2023/03/30 07:01:29;;;;;;;25.70;14.33;;;;;;;5.70;57.01;100023.75;1829788;78;27471;-58
2023/03/30 07:03:55;;;;;;;26.17;14.33;;;;;;;5.82;56.93;100021.23;1829703;78;25463;-59
2023/03/30 07:06:23;;;;;;;31.50;14.80;;;;;;;5.93;56.91;100020.06;1829822;78;25505;-59
2023/03/30 07:08:51;;;;;;;30.17;14.68;;;;;;;6.02;56.59;100012.22;1829810;78;25391;-58
2023/03/30 07:11:18;;;;;;;32.15;15.03;;;;;;;6.08;56.46;100015.91;1829835;78;25461;-59
2023/03/30 07:13:45;;;;;;;26.60;14.05;;;;;;;6.17;56.45;100018.20;1829821;78;27460;-57
2023/03/30 07:16:11;;;;;;;24.43;13.75;;;;;;;6.21;56.23;100009.58;1829723;77;25533;-57
2023/03/30 07:18:37;;;;;;;26.07;14.33;;;;;;;6.26;56.10;100010.86;1827255;77;25500;-55
2023/03/30 07:21:04;;;;;;;25.72;14.30;;;;;;;6.30;56.02;100014.56;1823631;78;25626;-59
2023/03/30 07:23:31;;;;;;;28.92;14.30;;;;;;;6.35;56.13;100005.92;1823769;78;25572;-59
2023/03/30 07:25:57;;;;;;;30.48;13.90;;;;;;;6.45;56.12;100007.69;1823688;78;27545;-59
2023/03/30 07:28:24;;;;;;;27.05;14.43;;;;;;;6.55;56.05;100012.11;1803116;78;25410;-57
2023/03/30 07:30:51;;;;;;;32.05;14.63;;;;;;;6.59;55.82;100005.09;1823741;78;25784;-57
2023/03/30 07:33:17;;;;;;;27.93;14.70;;;;;;;6.62;55.71;100001.80;1823678;78;25556;-59
2023/03/30 07:35:48;;;;;;;28.12;14.18;;;;;;;6.58;55.57;100006.17;1823762;78;25555;-57
2023/03/30 07:38:15;;;;;;;23.22;13.05;;;;;;;6.58;55.74;99999.45;1823661;78;27522;-57
2023/03/30 07:40:41;;;;;;;33.02;14.05;;;;;;;6.60;55.70;100009.91;1823620;78;25456;-58
2023/03/30 07:43:07;;;;;;;26.65;14.38;;;;;;;6.59;55.66;100006.95;1803185;78;25565;-56
2023/03/30 07:45:33;;;;;;;23.05;13.98;;;;;;;6.57;55.77;100012.62;1803109;78;25534;-58
2023/03/30 07:48:00;;;;;;;25.43;14.05;;;;;;;6.52;55.73;100004.09;1823745;78;25588;-58
2023/03/30 07:50:27;;;;;;;27.20;13.75;;;;;;;6.50;55.89;100008.15;1803243;78;28494;-57
2023/03/30 07:52:53;;;;;;;27.30;13.80;;;;;;;6.47;56.01;100010.88;1823712;78;25561;-54
2023/03/30 07:55:19;;;;;;;24.92;13.00;;;;;;;6.48;56.20;100007.64;1823601;78;25514;-58
2023/03/30 07:57:45;;;;;;;26.68;14.18;;;;;;;6.52;56.32;100013.50;1823654;78;25608;-58
2023/03/30 08:00:13;;;;;;;24.00;13.40;;;;;;;6.54;56.45;100008.63;1803202;78;25558;-58
2023/03/30 08:02:41;;;;;;;24.23;13.20;;;;;;;6.55;56.38;99993.30;1823685;78;27467;-58
2023/03/30 08:05:08;;;;;;;26.45;14.47;;;;;;;6.60;56.72;99994.58;1803401;78;25600;-59
2023/03/30 08:07:35;;;;;;;25.27;14.95;;;;;;;6.68;56.59;99999.31;1823702;78;25420;-59
2023/03/30 08:10:03;;;;;;;22.90;13.48;;;;;;;6.64;56.30;99990.23;1823619;78;25621;-59
2023/03/30 08:12:29;;;;;;;28.10;13.95;;;;;;;6.69;56.42;99990.70;1823813;78;25197;-59
2023/03/30 08:14:55;;;;;;;25.12;14.20;;;;;;;6.75;56.47;99988.75;1803242;78;27189;-57
2023/03/30 08:17:22;;;;;;;26.10;14.53;;;;;;;6.77;56.36;99994.63;1823544;78;25565;-58
2023/03/30 08:19:48;;;;;;;26.25;14.35;;;;;;;6.78;56.35;99991.66;1828212;77;25617;-57
2023/03/30 08:22:15;;;;;;;29.02;14.80;;;;;;;6.83;56.60;99984.08;1829792;77;27775;-58
2023/03/30 08:24:41;;;;;;;24.98;13.22;;;;;;;6.90;56.65;99976.44;1829770;78;25360;-58
2023/03/30 08:27:07;;;;;;;24.35;13.78;;;;;;;7.00;56.58;99990.25;1829745;77;29700;-58
2023/03/30 08:29:33;;;;;;;26.45;14.23;;;;;;;7.08;56.49;99992.28;1829711;77;32828;-58
2023/03/30 08:31:59;;;;;;;30.60;14.40;;;;;;;7.14;56.42;99984.40;1829774;78;25369;-57
2023/03/30 08:34:26;;;;;;;23.27;13.35;;;;;;;7.22;56.48;99985.61;1829714;78;26132;-54
2023/03/30 08:36:53;;;;;;;25.65;13.62;;;;;;;7.30;56.28;99978.21;1829769;77;25674;-56
2023/03/30 08:39:20;;;;;;;26.85;14.70;;;;;;;7.35;56.31;99979.47;1829718;78;29570;-58
2023/03/30 08:42:13;;;;;;;23.85;13.30;;;;;;;7.42;56.12;99975.88;1829671;78;27398;-59
2023/03/30 08:44:47;;;;;;;25.92;13.60;;;;;;;7.52;56.14;99978.13;1829522;77;25554;-59
2023/03/30 08:47:19;;;;;;;21.87;12.80;;;;;;;7.64;56.24;99971.72;1830403;77;25544;-59
2023/03/30 08:49:57;;;;;;;23.73;12.88;;;;;;;7.75;56.00;99967.75;1829667;77;25372;-59
2023/03/30 08:52:25;;;;;;;25.82;13.20;;;;;;;7.82;55.78;99960.63;1811305;78;27692;-59
2023/03/30 08:54:52;;;;;;;26.50;13.98;;;;;;;7.90;56.04;99959.94;1829844;77;25368;-57
2023/03/30 08:58:00;;;;;;;26.87;13.48;;;;;;;7.97;55.82;99961.69;1829779;77;25446;-58
2023/03/30 09:00:50;;;;;;;19.17;12.23;;;;;;;8.07;55.79;99962.04;1727454;81;25484;-59
2023/03/30 09:03:44;;;;;;;24.65;12.15;;;;;;;8.10;55.66;99960.06;1752999;81;25614;-54
2023/03/30 09:06:33;;;;;;;24.40;12.93;;;;;;;8.13;55.42;99962.17;1752847;81;27465;-58
2023/03/30 09:09:00;;;;;;;24.82;13.68;;;;;;;8.07;55.40;99956.66;1752668;81;25497;-59
2023/03/30 09:11:34;;;;;;;20.12;13.25;;;;;;;7.98;55.51;99952.48;1752792;81;25631;-57
2023/03/30 09:14:04;;;;;;;23.60;13.48;;;;;;;8.02;55.64;99948.67;1752772;81;25666;-54
2023/03/30 09:16:47;;;;;;;22.40;13.15;;;;;;;8.00;55.65;99941.42;1752847;81;25511;-58
2023/03/30 09:19:24;;;;;;;24.43;13.50;;;;;;;7.94;55.72;99938.04;1749947;81;28225;-56
2023/03/30 09:21:54;;;;;;;21.20;13.30;;;;;;;7.93;55.79;99928.35;1747614;82;27396;-58
2023/03/30 10:20:38;;;;;;;30.70;27.45;;;;;;;8.34;57.08;99863.38;1715111;81;27622;-66
2023/03/30 10:23:12;;;;;;;23.22;12.40;;;;;;;8.49;57.32;99864.97;1707535;83;25724;-66
2023/03/30 10:25:42;;;;;;;24.52;11.88;;;;;;;8.72;57.04;99863.09;1709965;83;25412;-66
2023/03/30 10:28:26;;;;;;;20.08;11.83;;;;;;;9.02;57.01;99862.86;1715006;83;25970;-67
2023/03/30 10:31:03;;;;;;;23.73;12.37;;;;;;;9.35;56.25;99851.22;1689771;83;25538;-66
2023/03/30 10:33:31;;;;;;;25.95;19.17;;;;;;;9.80;56.63;99849.45;1714308;83;27506;-66
2023/03/30 10:36:00;;;;;;;22.58;12.35;;;;;;;10.17;55.39;99849.44;1707680;81;26050;-66
2023/03/30 10:38:32;;;;;;;27.35;14.18;;;;;;;10.60;55.05;99835.14;1746371;81;25512;-65
2023/03/30 10:41:09;;;;;;;23.65;12.85;;;;;;;11.17;54.56;99830.58;1741849;81;25554;-65
2023/03/30 10:43:37;;;;;;;20.97;12.95;;;;;;;12.04;53.24;99838.28;1737807;81;25484;-65
2023/03/30 10:46:17;;;;;;;23.42;13.68;;;;;;;12.65;52.77;99824.22;1749333;81;28108;-66
2023/03/30 10:49:06;;;;;;;20.95;13.03;;;;;;;13.17;50.56;99825.57;1737171;81;26104;-65
2023/03/30 10:51:44;;;;;;;24.18;13.50;;;;;;;13.40;48.00;99823.80;1721322;81;25698;-66
2023/03/30 10:54:19;;;;;;;21.85;13.35;;;;;;;13.74;47.01;99809.52;1737210;81;25512;-65
2023/03/30 10:56:54;;;;;;;20.68;13.68;;;;;;;14.36;48.50;99802.80;1711114;83;25616;-65
2023/03/30 11:00:10;;;;;;;24.82;14.23;;;;;;;15.15;47.02;99804.09;1730397;81;28398;-64
2023/03/30 11:02:47;;;;;;;21.77;14.53;;;;;;;15.65;44.46;99795.75;1719500;82;25488;-66
2023/03/30 11:05:25;;;;;;;23.75;14.07;;;;;;;15.91;43.16;99800.42;1746187;81;25477;-66
2023/03/30 11:08:22;;;;;;;19.85;13.18;;;;;;;16.00;44.43;99790.87;1700967;83;26251;-67
2023/03/30 11:10:57;;;;;;;20.15;12.47;;;;;;;16.44;43.23;99785.70;1702877;83;25724;-66
2023/03/30 11:13:38;;;;;;;23.32;13.30;;;;;;;16.70;43.22;99786.41;1701112;84;27523;-65
2023/03/30 11:16:35;;;;;;;18.60;12.25;;;;;;;16.82;41.53;99782.69;1703460;83;25561;-67
2023/03/30 11:19:08;;;;;;;22.00;12.60;;;;;;;16.28;41.60;99783.62;1702352;83;25609;-58
2023/03/30 11:22:00;;;;;;;18.85;11.48;;;;;;;15.73;42.29;99786.36;1733028;82;25607;-58
2023/03/30 11:24:29;;;;;;;19.07;12.43;;;;;;;15.39;42.20;99786.79;1734792;81;25626;-58
2023/03/30 11:27:20;;;;;;;20.37;12.23;;;;;;;15.18;43.55;99776.73;1738105;81;27465;-57
2023/03/30 11:30:17;;;;;;;18.42;11.57;;;;;;;15.05;43.00;99771.39;1734931;81;25426;-58
2023/03/30 11:33:34;;;;;;;18.40;11.20;;;;;;;14.61;43.14;99767.35;1745882;80;25500;-58
2023/03/30 11:36:18;;;;;;;18.55;10.80;;;;;;;14.32;44.15;99764.37;1768680;80;26022;-58
2023/03/30 11:38:53;;;;;;;15.95;10.30;;;;;;;14.15;44.82;99763.55;1768761;80;25546;-59
2023/03/30 11:41:27;;;;;;;17.12;11.65;;;;;;;14.17;44.79;99759.91;1760001;81;27499;-59
2023/03/30 11:43:55;;;;;;;15.25;10.68;;;;;;;14.12;45.19;99760.16;1755830;81;25689;-58
2023/03/30 11:46:36;;;;;;;15.85;10.68;;;;;;;14.33;45.93;99756.45;1770635;80;25532;-55
2023/03/30 11:49:29;;;;;;;15.13;9.95;;;;;;;14.87;45.30;99742.92;1715402;80;26039;-56
2023/03/30 11:52:22;;;;;;;19.07;9.95;;;;;;;15.22;45.42;99736.19;1763112;81;25613;-59
2023/03/30 11:54:57;;;;;;;16.30;9.73;;;;;;;15.78;45.59;99724.77;1761183;81;28069;-61
2023/03/30 11:57:41;;;;;;;17.42;9.73;;;;;;;16.48;44.63;99737.45;1770488;80;25616;-59
2023/03/30 12:00:31;;;;;;;16.95;9.43;;;;;;;16.53;43.47;99718.59;1762885;81;25448;-57
2023/03/30 12:03:22;;;;;;;15.68;10.28;;;;;;;16.77;42.33;99718.25;1780172;80;25578;-58
2023/03/30 12:06:30;;;;;;;18.02;10.13;;;;;;;16.56;42.02;99717.29;1764161;80;25864;-59
2023/03/30 12:09:25;;;;;;;16.45;9.63;;;;;;;16.20;41.21;99730.28;1763204;80;28379;-59
2023/03/30 12:12:14;;;;;;;18.12;10.00;;;;;;;16.03;42.05;99706.96;1757550;81;25827;-62
2023/03/30 12:15:22;;;;;;;18.20;10.03;;;;;;;15.90;42.54;99698.70;1761036;81;25458;-59
2023/03/30 12:18:06;;;;;;;16.87;9.98;;;;;;;15.90;42.54;99698.70;1759746;81;25565;-58
2023/03/30 12:21:15;;;;;;;20.60;10.68;;;;;;;15.32;41.99;99683.06;1764469;81;25540;-58
2023/03/30 12:23:59;;;;;;;18.02;10.43;;;;;;;14.86;42.89;99678.12;1759746;81;27902;-58
2023/03/30 12:26:31;;;;;;;15.83;9.98;;;;;;;14.61;43.57;99688.97;1768372;81;25405;-60
2023/03/30 12:29:16;;;;;;;16.95;9.25;;;;;;;14.34;44.10;99675.07;1768812;81;25575;-58
2023/03/30 12:31:54;;;;;;;16.50;10.43;;;;;;;14.26;44.60;99674.08;1743525;81;25904;-58
2023/03/30 12:34:35;;;;;;;17.00;9.50;;;;;;;14.40;45.08;99670.94;1745032;81;25551;-59
2023/03/30 12:37:13;;;;;;;18.42;10.03;;;;;;;14.76;44.56;99684.10;1762268;81;28595;-58
2023/03/30 12:39:54;;;;;;;15.57;9.90;;;;;;;14.61;44.20;99661.21;1763697;80;25733;-57
2023/03/30 12:42:38;;;;;;;13.85;8.78;;;;;;;14.52;44.34;99666.80;1773863;80;25447;-59
2023/03/30 12:45:20;;;;;;;21.55;9.15;;;;;;;14.34;44.94;99661.47;1770483;80;25619;-58